createdAt,value
2023-02-23T00:01:27.701Z,67.80
2023-02-23T00:03:56.351Z,67.70
2023-02-23T00:06:24.848Z,67.70
2023-02-23T00:08:52.215Z,67.80
2023-02-23T00:11:20.710Z,67.80
2023-02-23T00:13:52.244Z,67.80
2023-02-23T00:16:22.067Z,67.70
2023-02-23T00:18:54.029Z,67.80
2023-02-23T00:21:35.010Z,67.80
2023-02-23T00:24:08.761Z,67.70
2023-02-23T00:26:38.022Z,67.70
2023-02-23T00:29:07.655Z,67.70
2023-02-23T00:31:34.968Z,67.80
2023-02-23T00:34:03.353Z,67.80
2023-02-23T00:36:32.518Z,67.70
2023-02-23T00:39:18.287Z,67.70
2023-02-23T00:41:52.418Z,67.70
2023-02-23T00:44:21.640Z,67.70
2023-02-23T00:46:51.674Z,67.60
2023-02-23T00:49:20.039Z,67.90
2023-02-23T00:51:46.932Z,67.70
2023-02-23T00:54:15.033Z,68.50
2023-02-23T00:56:41.991Z,67.70
2023-02-23T00:59:09.279Z,67.70
2023-02-23T01:01:37.525Z,67.70
2023-02-23T01:04:05.133Z,67.70
2023-02-23T01:06:32.234Z,67.80
2023-02-23T01:08:58.951Z,67.80
2023-02-23T01:11:28.046Z,67.80
2023-02-23T01:13:59.157Z,67.80
2023-02-23T01:16:29.130Z,67.70
2023-02-23T01:18:58.261Z,67.80
2023-02-23T01:21:30.924Z,67.80
2023-02-23T01:23:58.048Z,67.80
2023-02-23T01:26:27.665Z,67.80
2023-02-23T01:28:57.403Z,67.80
2023-02-23T01:31:25.339Z,67.80
2023-02-23T01:34:00.686Z,67.80
2023-02-23T01:36:31.461Z,68.50
2023-02-23T01:38:59.997Z,67.80
2023-02-23T01:41:29.782Z,68.00
2023-02-23T01:44:08.063Z,67.90
2023-02-23T01:46:40.516Z,67.80
2023-02-23T01:49:16.404Z,67.90
2023-02-23T01:51:51.117Z,67.90
2023-02-23T01:54:22.118Z,67.90
2023-02-23T01:56:57.971Z,67.90
2023-02-23T01:59:34.242Z,67.90
2023-02-23T02:02:04.925Z,67.80
2023-02-23T02:04:43.878Z,68.00
2023-02-23T02:07:18.702Z,68.00
2023-02-23T02:10:07.156Z,67.90
2023-02-23T02:12:34.045Z,68.00
2023-02-23T02:15:02.744Z,67.90
2023-02-23T02:17:37.804Z,67.90
2023-02-23T02:20:37.515Z,67.90
2023-02-23T02:23:31.761Z,68.00
2023-02-23T02:26:10.353Z,67.90
2023-02-23T02:29:14.695Z,67.90
2023-02-23T02:31:49.990Z,68.00
2023-02-23T02:34:44.432Z,67.90
2023-02-23T02:37:44.865Z,67.90
2023-02-23T02:40:32.633Z,68.00
2023-02-23T02:43:24.340Z,68.10
2023-02-23T02:45:53.406Z,68.00
2023-02-23T02:48:30.926Z,68.10
2023-02-23T02:51:22.594Z,68.00
2023-02-23T02:54:06.818Z,68.10
2023-02-23T02:56:40.383Z,68.00
2023-02-23T02:59:39.485Z,68.00
2023-02-23T03:02:25.447Z,68.70
2023-02-23T03:05:10.898Z,68.00
2023-02-23T03:07:56.290Z,67.90
2023-02-23T03:10:52.976Z,67.90
2023-02-23T03:14:00.010Z,67.90
2023-02-23T03:17:15.098Z,67.90
2023-02-23T03:20:16.803Z,67.90
2023-02-23T03:23:22.453Z,68.00
2023-02-23T03:26:18.211Z,68.00
2023-02-23T03:29:37.520Z,68.10
2023-02-23T03:32:28.432Z,68.00
2023-02-23T03:35:25.955Z,68.00
2023-02-23T03:38:18.694Z,68.10
2023-02-23T03:41:06.694Z,68.10
2023-02-23T03:43:58.355Z,68.10
2023-02-23T03:46:46.183Z,68.10
2023-02-23T03:49:34.641Z,68.10
2023-02-23T03:52:28.274Z,68.00
2023-02-23T03:55:18.695Z,68.00
2023-02-23T03:58:10.572Z,68.10
2023-02-23T04:01:01.634Z,68.10
2023-02-23T04:03:51.835Z,68.20
2023-02-23T04:06:37.941Z,68.10
2023-02-23T04:09:25.700Z,68.10
2023-02-23T04:12:19.053Z,68.10
2023-02-23T04:15:08.191Z,68.10
2023-02-23T04:17:35.157Z,68.20
2023-02-23T04:20:01.780Z,68.20
2023-02-23T04:22:28.417Z,68.20
2023-02-23T04:24:55.217Z,68.20
2023-02-23T04:27:21.919Z,68.20
2023-02-23T04:29:48.538Z,68.30
2023-02-23T04:32:20.882Z,68.20
2023-02-23T04:34:47.667Z,68.30
2023-02-23T04:37:14.606Z,68.30
2023-02-23T04:39:42.745Z,68.20
2023-02-23T04:42:10.078Z,68.30
2023-02-23T04:44:36.703Z,68.20
2023-02-23T04:47:04.080Z,68.20
2023-02-23T04:49:30.891Z,68.30
2023-02-23T04:51:57.558Z,68.30
2023-02-23T04:54:24.356Z,68.30
2023-02-23T04:56:50.961Z,68.30
2023-02-23T04:59:17.655Z,68.30
2023-02-23T05:01:44.348Z,68.30
2023-02-23T05:04:11.134Z,68.40
2023-02-23T05:06:37.797Z,68.30
2023-02-23T05:09:06.225Z,68.40
2023-02-23T05:11:33.145Z,68.40
2023-02-23T05:13:59.837Z,68.40
2023-02-23T05:16:26.524Z,68.40
2023-02-23T05:18:53.412Z,68.40
2023-02-23T05:21:20.291Z,68.30
2023-02-23T05:23:47.881Z,68.30
2023-02-23T05:26:14.625Z,68.30
2023-02-23T05:28:42.968Z,68.30
2023-02-23T05:31:10.357Z,68.40
2023-02-23T05:33:45.677Z,68.30
2023-02-23T05:36:16.252Z,68.30
2023-02-23T05:38:43.560Z,68.40
2023-02-23T05:41:13.349Z,68.40
2023-02-23T05:43:40.440Z,68.30
2023-02-23T05:46:12.962Z,68.30
2023-02-23T05:48:39.577Z,68.60
2023-02-23T05:51:09.161Z,68.60
2023-02-23T05:53:37.092Z,68.60
2023-02-23T05:56:05.628Z,68.60
2023-02-23T05:58:32.381Z,68.70
2023-02-23T06:00:58.986Z,68.80
2023-02-23T06:03:25.779Z,69.00
2023-02-23T06:05:54.699Z,68.90
2023-02-23T06:08:21.515Z,69.20
2023-02-23T06:10:48.295Z,68.90
2023-02-23T06:13:15.192Z,69.00
2023-02-23T06:15:42.509Z,69.00
2023-02-23T06:18:09.566Z,69.10
2023-02-23T06:20:40.167Z,69.00
2023-02-23T06:23:07.522Z,68.80
2023-02-23T06:25:34.618Z,69.20
2023-02-23T06:28:01.305Z,66.40
2023-02-23T06:30:27.997Z,68.40
2023-02-23T06:32:54.632Z,69.20
2023-02-23T06:35:21.396Z,70.30
2023-02-23T06:37:48.204Z,69.70
2023-02-23T06:40:14.928Z,71.50
2023-02-23T06:42:41.540Z,72.10
2023-02-23T06:45:08.659Z,72.30
2023-02-23T06:47:35.270Z,72.40
2023-02-23T06:50:03.937Z,72.30
2023-02-23T06:52:30.579Z,72.60
2023-02-23T06:54:57.179Z,72.80
2023-02-23T06:57:23.843Z,72.80
2023-02-23T06:59:50.591Z,72.70
2023-02-23T07:02:17.518Z,72.90
2023-02-23T07:04:44.170Z,73.00
2023-02-23T07:07:11.113Z,72.90
2023-02-23T07:09:40.195Z,72.60
2023-02-23T07:12:06.977Z,72.60
2023-02-23T07:14:33.602Z,72.90
2023-02-23T07:17:00.380Z,72.90
2023-02-23T07:19:27.250Z,72.80
2023-02-23T07:21:54.115Z,72.90
2023-02-23T07:24:21.800Z,72.90
2023-02-23T07:26:49.252Z,73.00
2023-02-23T07:29:16.066Z,72.90
2023-02-23T07:31:42.785Z,72.90
2023-02-23T07:34:09.793Z,73.10
2023-02-23T07:36:36.869Z,73.00
2023-02-23T07:39:04.902Z,73.00
2023-02-23T07:41:32.013Z,73.00
2023-02-23T07:43:59.278Z,72.90
2023-02-23T07:46:26.713Z,72.80
2023-02-23T07:48:53.818Z,72.90
2023-02-23T07:51:20.814Z,72.70
2023-02-23T07:53:47.637Z,72.80
2023-02-23T07:56:14.288Z,73.10
2023-02-23T07:58:42.738Z,72.70
2023-02-23T08:01:10.760Z,72.70
2023-02-23T08:03:38.766Z,72.60
2023-02-23T08:06:06.228Z,72.60
2023-02-23T08:08:33.969Z,72.70
2023-02-23T08:11:02.141Z,72.70
2023-02-23T08:13:29.763Z,72.60
2023-02-23T08:15:56.844Z,72.60
2023-02-23T08:18:23.664Z,72.60
2023-02-23T08:20:50.373Z,72.50
2023-02-23T08:23:18.132Z,72.50
2023-02-23T08:25:44.813Z,72.50
2023-02-23T08:28:12.488Z,72.50
2023-02-23T08:30:41.434Z,72.40
2023-02-23T08:33:08.229Z,72.40
2023-02-23T08:35:34.863Z,72.50
2023-02-23T08:38:01.481Z,72.40
2023-02-23T08:40:28.178Z,72.40
2023-02-23T08:42:54.805Z,72.40
2023-02-23T08:45:21.481Z,72.50
2023-02-23T08:47:48.083Z,72.30
2023-02-23T08:50:15.023Z,72.30
2023-02-23T08:52:42.553Z,72.30
2023-02-23T08:55:11.654Z,72.30
2023-02-23T08:57:38.285Z,72.30
2023-02-23T09:00:14.287Z,72.30
2023-02-23T09:02:41.902Z,72.20
2023-02-23T09:05:09.127Z,72.20
2023-02-23T09:07:37.183Z,73.00
2023-02-23T09:10:04.052Z,72.30
2023-02-23T09:12:30.688Z,72.20
2023-02-23T09:14:57.546Z,72.20
2023-02-23T09:17:24.212Z,72.20
2023-02-23T09:19:51.112Z,72.20
2023-02-23T09:22:18.455Z,72.30
2023-02-23T09:24:45.421Z,72.30
2023-02-23T09:27:12.838Z,72.20
2023-02-23T09:29:43.261Z,72.20
2023-02-23T09:32:11.712Z,72.20
2023-02-23T09:34:38.488Z,72.30
2023-02-23T09:37:05.445Z,72.20
2023-02-23T09:39:38.248Z,72.20
2023-02-23T09:42:24.142Z,72.20
2023-02-23T09:44:50.739Z,72.20
2023-02-23T09:47:51.156Z,72.10
2023-02-23T09:50:22.641Z,72.10
2023-02-23T09:52:57.510Z,72.00
2023-02-23T09:55:25.995Z,72.10
2023-02-23T09:57:53.882Z,72.10
2023-02-23T10:00:27.405Z,72.10
2023-02-23T10:03:17.142Z,72.10
2023-02-23T10:05:58.981Z,72.00
2023-02-23T10:08:32.727Z,72.10
2023-02-23T10:11:21.218Z,72.00
2023-02-23T10:14:20.715Z,72.10
2023-02-23T10:17:00.858Z,72.10
2023-02-23T10:19:53.464Z,72.10
2023-02-23T10:22:21.105Z,72.10
2023-02-23T10:25:04.752Z,72.00
2023-02-23T10:27:40.645Z,72.10
2023-02-23T10:30:21.564Z,72.00
2023-02-23T10:33:06.966Z,72.10
2023-02-23T10:35:34.178Z,72.10
2023-02-23T10:38:01.948Z,72.10
2023-02-23T10:40:32.967Z,72.10
2023-02-23T10:43:03.083Z,72.10
2023-02-23T10:45:34.292Z,72.10
2023-02-23T10:48:24.375Z,72.20
2023-02-23T10:50:54.305Z,72.10
2023-02-23T10:53:32.693Z,72.10
2023-02-23T10:56:17.521Z,72.10
2023-02-23T10:58:53.162Z,72.10
2023-02-23T11:01:41.728Z,72.00
2023-02-23T11:04:22.169Z,72.00
2023-02-23T11:06:49.663Z,72.00
2023-02-23T11:09:44.403Z,72.00
2023-02-23T11:12:35.891Z,71.90
2023-02-23T11:15:35.337Z,72.00
2023-02-23T11:18:06.740Z,72.00
2023-02-23T11:20:40.334Z,72.00
2023-02-23T11:23:14.609Z,72.00
2023-02-23T11:25:43.459Z,71.80
2023-02-23T11:28:24.701Z,71.80
2023-02-23T11:30:51.662Z,72.00
2023-02-23T11:33:25.345Z,71.80
2023-02-23T11:35:59.731Z,71.80
2023-02-23T11:38:29.121Z,71.80
2023-02-23T11:41:00.336Z,71.60
2023-02-23T11:43:27.256Z,71.70
2023-02-23T11:46:00.580Z,71.60
2023-02-23T11:48:30.152Z,71.80
2023-02-23T11:50:57.565Z,71.80
2023-02-23T11:53:31.495Z,71.80
2023-02-23T11:56:07.896Z,71.70
2023-02-23T11:58:46.808Z,71.70
2023-02-23T12:01:23.430Z,71.70
2023-02-23T12:03:54.965Z,71.50
2023-02-23T12:06:39.382Z,71.70
2023-02-23T12:09:29.347Z,71.70
2023-02-23T12:12:11.111Z,71.70
2023-02-23T12:14:51.233Z,71.70
2023-02-23T12:17:52.576Z,71.60
2023-02-23T12:20:32.682Z,71.80
2023-02-23T12:23:24.594Z,71.70
2023-02-23T12:26:22.524Z,71.50
2023-02-23T12:29:03.463Z,71.50
2023-02-23T12:31:44.126Z,71.50
2023-02-23T12:34:39.709Z,71.70
2023-02-23T12:37:18.084Z,71.70
2023-02-23T12:39:51.497Z,71.50
2023-02-23T12:42:31.130Z,71.40
2023-02-23T12:45:04.162Z,71.60
2023-02-23T12:47:55.793Z,71.40
2023-02-23T12:50:37.520Z,71.40
2023-02-23T12:53:08.288Z,71.30
2023-02-23T12:55:48.292Z,71.30
2023-02-23T12:58:18.815Z,71.20
2023-02-23T13:01:12.707Z,71.20
2023-02-23T13:04:02.512Z,71.10
2023-02-23T13:06:35.342Z,71.20
2023-02-23T13:09:39.524Z,71.30
2023-02-23T13:12:29.514Z,71.30
2023-02-23T13:15:29.029Z,71.20
2023-02-23T13:18:10.502Z,71.30
2023-02-23T13:20:51.693Z,72.10
2023-02-23T13:23:41.502Z,71.30
2023-02-23T13:26:26.693Z,71.40
2023-02-23T13:28:56.548Z,71.30
2023-02-23T13:31:38.486Z,71.20
2023-02-23T13:34:09.313Z,71.40
2023-02-23T13:36:37.376Z,71.40
2023-02-23T13:39:45.093Z,71.20
2023-02-23T13:42:42.076Z,71.40
2023-02-23T13:45:29.874Z,71.40
2023-02-23T13:48:14.043Z,71.20
2023-02-23T13:51:02.493Z,71.00
2023-02-23T13:53:39.757Z,71.20
2023-02-23T13:56:09.681Z,71.10
2023-02-23T13:58:37.034Z,71.20
2023-02-23T14:01:10.997Z,71.40
2023-02-23T14:03:55.928Z,71.40
2023-02-23T14:06:25.888Z,71.40
2023-02-23T14:09:00.792Z,71.30
2023-02-23T14:11:42.397Z,71.40
2023-02-23T14:14:13.361Z,71.40
2023-02-23T14:16:40.266Z,71.30
2023-02-23T14:19:11.355Z,71.40
2023-02-23T14:21:58.550Z,71.50
2023-02-23T14:24:27.629Z,71.50
2023-02-23T14:27:41.046Z,71.50
2023-02-23T14:30:11.505Z,71.50
2023-02-23T14:32:41.490Z,71.50
2023-02-23T14:35:33.902Z,71.50
2023-02-23T14:38:05.364Z,71.50
2023-02-23T14:40:38.456Z,71.50
2023-02-23T14:43:33.967Z,71.60
2023-02-23T14:46:01.964Z,71.50
2023-02-23T14:48:29.023Z,71.40
2023-02-23T14:51:20.363Z,71.60
2023-02-23T14:53:47.037Z,71.50
2023-02-23T14:56:26.170Z,71.40
2023-02-23T14:58:58.920Z,71.20
2023-02-23T15:01:33.295Z,71.30
2023-02-23T15:04:08.429Z,71.20
2023-02-23T15:06:35.932Z,71.10
2023-02-23T15:09:02.713Z,71.20
2023-02-23T15:11:31.461Z,71.30
2023-02-23T15:13:58.889Z,71.30
2023-02-23T15:16:36.647Z,71.40
2023-02-23T15:19:06.823Z,71.30
2023-02-23T15:21:35.759Z,71.40
2023-02-23T15:24:11.015Z,71.50
2023-02-23T15:26:39.934Z,71.30
2023-02-23T15:29:18.129Z,71.30
2023-02-23T15:31:52.470Z,71.40
2023-02-23T15:34:21.995Z,71.30
2023-02-23T15:36:56.502Z,70.60
2023-02-23T15:39:38.609Z,66.30
2023-02-23T15:42:06.818Z,67.20
2023-02-23T15:44:43.687Z,69.40
2023-02-23T15:47:21.315Z,69.40
2023-02-23T15:49:48.666Z,70.50
2023-02-23T15:52:20.690Z,71.30
2023-02-23T15:55:02.040Z,70.30
2023-02-23T15:57:54.283Z,72.80
2023-02-23T16:03:08.196Z,81.30
2023-02-23T16:05:47.037Z,92.50
2023-02-23T16:08:23.968Z,70.00
2023-02-23T16:10:54.995Z,70.40
2023-02-23T16:13:22.539Z,70.40
2023-02-23T16:15:49.972Z,70.50
2023-02-23T16:18:20.212Z,70.60
2023-02-23T16:20:55.812Z,71.00
2023-02-23T16:23:34.197Z,71.30
2023-02-23T16:26:12.451Z,71.50
2023-02-23T16:28:44.974Z,71.60
2023-02-23T16:31:13.969Z,71.70
2023-02-23T16:33:44.487Z,71.60
2023-02-23T16:36:11.180Z,71.90
2023-02-23T16:38:40.749Z,72.00
2023-02-23T16:41:17.907Z,72.10
2023-02-23T16:43:47.370Z,72.50
2023-02-23T16:46:14.429Z,72.30
2023-02-23T16:48:41.402Z,74.60
2023-02-23T16:51:19.854Z,74.40
2023-02-23T16:53:46.911Z,72.90
2023-02-23T16:56:17.698Z,74.10
2023-02-23T16:58:46.988Z,75.30
2023-02-23T17:01:14.586Z,70.00
2023-02-23T17:03:52.455Z,68.90
2023-02-23T17:06:20.502Z,70.20
2023-02-23T17:08:57.218Z,70.90
2023-02-23T17:11:24.394Z,69.90
2023-02-23T17:13:51.091Z,69.60
2023-02-23T17:16:18.077Z,69.60
2023-02-23T17:18:44.958Z,70.00
2023-02-23T17:21:14.305Z,70.20
2023-02-23T17:23:51.366Z,70.60
2023-02-23T17:26:21.645Z,70.30
2023-02-23T17:28:48.751Z,71.80
2023-02-23T17:31:18.219Z,71.00
2023-02-23T17:33:45.258Z,71.10
2023-02-23T17:36:14.989Z,71.40
2023-02-23T17:38:44.136Z,72.10
2023-02-23T17:41:17.372Z,71.80
2023-02-23T17:43:44.147Z,72.40
2023-02-23T17:46:12.370Z,72.90
2023-02-23T17:48:40.555Z,71.30
2023-02-23T17:51:09.592Z,73.60
2023-02-23T17:53:36.564Z,70.90
2023-02-23T17:56:03.570Z,71.20
2023-02-23T17:58:30.549Z,71.20
2023-02-23T18:00:59.064Z,71.50
2023-02-23T18:03:36.405Z,71.80
2023-02-23T18:06:12.136Z,71.80
2023-02-23T18:08:40.717Z,72.10
2023-02-23T18:11:08.232Z,72.30
2023-02-23T18:13:34.911Z,72.70
2023-02-23T18:16:05.840Z,72.00
2023-02-23T18:18:32.532Z,71.90
2023-02-23T18:21:00.379Z,72.30
2023-02-23T18:23:30.488Z,72.50
2023-02-23T18:26:06.121Z,73.40
2023-02-23T18:28:33.335Z,72.80
2023-02-23T18:30:59.993Z,72.90
2023-02-23T18:33:26.744Z,72.90
2023-02-23T18:35:53.514Z,73.50
2023-02-23T18:38:20.154Z,74.90
2023-02-23T18:40:46.836Z,75.20
2023-02-23T18:43:14.302Z,78.30
2023-02-23T18:45:41.113Z,78.60
2023-02-23T18:48:10.791Z,78.90
2023-02-23T18:50:37.425Z,79.10
2023-02-23T18:53:05.427Z,76.20
2023-02-23T18:55:32.741Z,77.20
2023-02-23T18:57:59.320Z,79.20
2023-02-23T19:00:26.042Z,82.40
2023-02-23T19:02:53.706Z,85.80
2023-02-23T19:05:22.126Z,87.50
2023-02-23T19:07:48.904Z,90.10
2023-02-23T19:10:16.271Z,90.30
2023-02-23T19:25:14.024Z,91.80
2023-02-23T19:27:41.161Z,91.10
2023-02-23T19:35:10.226Z,91.60
2023-02-23T19:37:41.982Z,89.40
2023-02-23T19:40:09.489Z,84.80
2023-02-23T19:42:36.849Z,83.10
2023-02-23T19:45:03.730Z,84.40
2023-02-23T19:47:30.427Z,85.20
2023-02-23T19:49:57.129Z,86.10
2023-02-23T19:52:24.630Z,87.90
2023-02-23T19:54:51.252Z,90.20
2023-02-23T20:04:42.986Z,81.40
2023-02-23T20:07:11.475Z,83.00
2023-02-23T20:09:38.466Z,83.10
2023-02-23T20:12:05.681Z,83.30
2023-02-23T20:14:32.718Z,84.20
2023-02-23T20:17:00.258Z,84.90
2023-02-23T20:19:27.074Z,85.00
2023-02-23T20:21:54.257Z,85.10
2023-02-23T20:24:20.888Z,85.90
2023-02-23T20:26:48.778Z,86.90
2023-02-23T20:29:19.184Z,87.20
2023-02-23T20:31:50.644Z,87.30
2023-02-23T20:34:24.634Z,88.70
2023-02-23T20:36:51.859Z,88.50
2023-02-23T20:39:19.027Z,88.90
2023-02-23T20:41:47.650Z,90.20
2023-02-23T20:44:17.880Z,90.20
2023-02-23T20:46:45.143Z,89.80
2023-02-23T20:49:12.843Z,89.70
2023-02-23T20:51:41.686Z,89.70
2023-02-23T20:54:10.542Z,89.70
2023-02-23T20:56:41.560Z,90.10
2023-02-23T20:59:11.972Z,90.30
2023-02-23T21:01:43.546Z,90.20
2023-02-23T21:04:13.113Z,90.20
2023-02-23T21:06:39.851Z,90.10
2023-02-23T21:09:12.377Z,90.00
2023-02-23T21:11:39.034Z,88.80
2023-02-23T21:14:08.348Z,89.00
2023-02-23T21:16:36.013Z,89.60
2023-02-23T21:19:05.732Z,90.00
2023-02-23T21:21:44.030Z,89.70
2023-02-23T21:24:11.379Z,90.00
2023-02-23T21:26:38.540Z,90.00
2023-02-23T21:29:11.577Z,89.90
2023-02-23T21:31:39.358Z,90.00
2023-02-23T21:34:06.644Z,90.30
2023-02-23T21:36:34.165Z,90.70
2023-02-23T21:39:01.053Z,91.00
2023-02-23T21:41:33.458Z,91.70
2023-02-23T21:44:05.488Z,91.30
2023-02-23T21:46:32.401Z,91.30
2023-02-23T21:48:59.147Z,91.60
2023-02-23T21:51:25.966Z,91.70
2023-02-23T21:53:55.725Z,91.70
2023-02-23T22:06:18.186Z,94.50
2023-02-23T22:08:50.111Z,90.90
2023-02-23T22:11:20.262Z,91.30
2023-02-23T22:13:49.601Z,91.60
2023-02-23T22:16:18.941Z,91.20
2023-02-23T22:18:46.208Z,89.90
2023-02-23T22:21:13.067Z,88.90
2023-02-23T22:23:41.431Z,89.00
2023-02-23T22:26:08.968Z,88.80
2023-02-23T22:28:36.179Z,88.90
2023-02-23T22:31:08.697Z,88.50
2023-02-23T22:33:37.168Z,88.50
2023-02-23T22:36:07.069Z,88.80
2023-02-23T22:38:37.404Z,88.50
2023-02-23T22:41:08.085Z,88.70
2023-02-23T22:43:34.866Z,89.10
2023-02-23T22:46:01.906Z,89.30
2023-02-23T22:48:28.757Z,90.20
2023-02-23T22:50:59.574Z,90.50
2023-02-23T22:53:27.012Z,91.00
2023-02-23T22:55:54.929Z,91.10
2023-02-23T22:58:26.434Z,90.90
2023-02-23T23:01:04.553Z,90.00
2023-02-23T23:03:37.723Z,89.80
2023-02-23T23:06:08.008Z,89.10
2023-02-23T23:08:42.746Z,88.70
2023-02-23T23:11:15.188Z,88.20
2023-02-23T23:13:44.701Z,88.90
2023-02-23T23:16:25.635Z,88.80
2023-02-23T23:19:02.370Z,88.30
2023-02-23T23:21:31.889Z,87.90
2023-02-23T23:24:01.164Z,88.50
2023-02-23T23:26:28.993Z,88.20
2023-02-23T23:28:58.398Z,88.10
2023-02-23T23:31:30.261Z,88.70
2023-02-23T23:34:00.093Z,88.60
2023-02-23T23:36:33.138Z,88.40
2023-02-23T23:39:01.081Z,88.90
2023-02-23T23:41:29.729Z,88.90
2023-02-23T23:43:58.393Z,88.60
2023-02-23T23:46:31.904Z,89.10
2023-02-23T23:49:02.029Z,89.60
2023-02-23T23:51:39.131Z,90.10
2023-02-23T23:54:09.572Z,90.10
2023-02-23T23:56:39.376Z,90.10
2023-02-23T23:59:08.958Z,89.40
